createdAt,value
2022-07-29T00:00:34.065Z,18.82
2022-07-29T00:01:34.056Z,18.82
2022-07-29T00:02:34.091Z,18.79
2022-07-29T00:03:34.111Z,18.82
2022-07-29T00:04:34.081Z,18.82
2022-07-29T00:05:34.046Z,18.82
2022-07-29T00:06:34.008Z,18.77
2022-07-29T00:07:34.018Z,18.77
2022-07-29T00:08:33.978Z,18.76
2022-07-29T00:09:33.976Z,18.76
2022-07-29T00:10:34.979Z,18.74
2022-07-29T00:11:33.959Z,18.73
2022-07-29T00:12:33.946Z,18.73
2022-07-29T00:13:33.934Z,18.72
2022-07-29T00:14:33.919Z,18.72
2022-07-29T00:15:33.934Z,18.70
2022-07-29T00:16:33.969Z,18.67
2022-07-29T00:17:33.890Z,18.64
2022-07-29T00:18:33.875Z,18.64
2022-07-29T00:19:33.869Z,18.62
2022-07-29T00:20:33.856Z,18.61
2022-07-29T00:21:33.872Z,18.61
2022-07-29T00:22:33.830Z,18.61
2022-07-29T00:23:36.654Z,18.61
2022-07-29T00:24:33.801Z,18.65
2022-07-29T00:25:33.900Z,18.65
2022-07-29T00:26:33.804Z,18.68
2022-07-29T00:27:33.772Z,18.67
2022-07-29T00:28:33.763Z,18.65
2022-07-29T00:29:34.948Z,18.65
2022-07-29T00:30:33.742Z,18.64
2022-07-29T00:31:33.809Z,18.58
2022-07-29T00:32:33.715Z,18.55
2022-07-29T00:33:33.712Z,18.52
2022-07-29T00:34:33.724Z,18.47
2022-07-29T00:35:33.692Z,18.50
2022-07-29T00:36:33.679Z,18.44
2022-07-29T00:37:33.664Z,18.43
2022-07-29T00:38:33.653Z,18.43
2022-07-29T00:39:33.657Z,18.39
2022-07-29T00:40:33.655Z,18.39
2022-07-29T00:41:33.627Z,18.39
2022-07-29T00:42:33.633Z,18.34
2022-07-29T00:43:33.605Z,18.33
2022-07-29T00:44:33.597Z,18.28
2022-07-29T00:45:33.582Z,18.25
2022-07-29T00:46:33.638Z,18.21
2022-07-29T00:47:33.565Z,18.21
2022-07-29T00:48:33.548Z,18.15
2022-07-29T00:49:33.539Z,18.09
2022-07-29T00:50:33.517Z,18.04
2022-07-29T00:51:33.545Z,18.03
2022-07-29T00:52:33.500Z,18.00
2022-07-29T00:53:33.487Z,17.99
2022-07-29T00:54:33.485Z,17.95
2022-07-29T00:55:33.468Z,17.91
2022-07-29T00:56:33.485Z,17.88
2022-07-29T00:57:33.458Z,17.89
2022-07-29T00:58:33.440Z,17.85
2022-07-29T00:59:34.826Z,17.85
2022-07-29T01:00:33.517Z,17.84
2022-07-29T01:01:33.481Z,17.82
2022-07-29T01:02:33.448Z,17.81
2022-07-29T01:03:33.412Z,17.81
2022-07-29T01:04:33.379Z,17.82
2022-07-29T01:05:48.504Z,17.79
2022-07-29T01:06:34.349Z,17.81
2022-07-29T01:07:33.343Z,17.81
2022-07-29T01:08:33.328Z,17.82
2022-07-29T01:09:43.053Z,17.84
2022-07-29T01:10:34.301Z,17.82
2022-07-29T01:11:33.290Z,17.82
2022-07-29T01:12:33.311Z,17.81
2022-07-29T01:13:33.271Z,17.81
2022-07-29T01:14:33.290Z,17.79
2022-07-29T01:15:33.252Z,17.78
2022-07-29T01:16:33.372Z,17.74
2022-07-29T01:17:33.250Z,17.73
2022-07-29T01:18:33.226Z,17.73
2022-07-29T01:19:33.213Z,17.71
2022-07-29T01:20:33.229Z,17.70
2022-07-29T01:21:33.193Z,17.69
2022-07-29T01:22:33.171Z,17.66
2022-07-29T01:23:33.166Z,17.66
2022-07-29T01:24:33.152Z,17.64
2022-07-29T01:25:33.145Z,17.66
2022-07-29T01:26:33.155Z,17.66
2022-07-29T01:27:33.121Z,17.66
2022-07-29T01:28:33.154Z,17.63
2022-07-29T01:29:36.143Z,17.63
2022-07-29T01:30:34.084Z,17.62
2022-07-29T01:31:33.126Z,17.62
2022-07-29T01:32:33.147Z,17.59
2022-07-29T01:33:33.083Z,17.57
2022-07-29T01:34:33.044Z,17.53
2022-07-29T01:35:33.036Z,17.54
2022-07-29T01:36:33.015Z,17.51
2022-07-29T01:37:33.048Z,17.53
2022-07-29T01:38:32.993Z,17.50
2022-07-29T01:39:33.422Z,17.48
2022-07-29T01:40:32.978Z,17.48
2022-07-29T01:41:32.965Z,17.48
2022-07-29T01:42:32.956Z,17.47
2022-07-29T01:43:32.967Z,17.46
2022-07-29T01:44:32.937Z,17.44
2022-07-29T01:45:32.927Z,17.43
2022-07-29T01:46:32.987Z,17.46
2022-07-29T01:47:32.898Z,17.46
2022-07-29T01:48:32.912Z,17.46
2022-07-29T01:49:32.877Z,17.47
2022-07-29T01:50:32.868Z,17.46
2022-07-29T01:51:32.863Z,17.47
2022-07-29T01:52:32.845Z,17.46
2022-07-29T01:53:37.799Z,17.47
2022-07-29T01:54:33.819Z,17.43
2022-07-29T01:55:32.819Z,17.43
2022-07-29T01:56:32.805Z,17.41
2022-07-29T01:57:32.797Z,17.44
2022-07-29T01:58:32.816Z,17.47
2022-07-29T01:59:32.785Z,17.46
2022-07-29T02:00:32.749Z,17.44
2022-07-29T02:01:32.786Z,17.43
2022-07-29T02:02:32.729Z,17.41
2022-07-29T02:03:32.758Z,17.43
2022-07-29T02:04:32.719Z,17.40
2022-07-29T02:05:32.713Z,17.36
2022-07-29T02:06:32.691Z,17.35
2022-07-29T02:07:32.678Z,17.33
2022-07-29T02:08:32.672Z,17.30
2022-07-29T02:09:32.691Z,17.29
2022-07-29T02:10:32.646Z,17.30
2022-07-29T02:11:32.641Z,17.26
2022-07-29T02:12:32.654Z,17.29
2022-07-29T02:13:32.621Z,17.28
2022-07-29T02:14:32.619Z,17.28
2022-07-29T02:15:32.630Z,17.26
2022-07-29T02:16:32.622Z,17.28
2022-07-29T02:17:32.572Z,17.28
2022-07-29T02:18:32.561Z,17.29
2022-07-29T02:19:32.552Z,17.30
2022-07-29T02:20:32.535Z,17.30
2022-07-29T02:21:32.554Z,17.30
2022-07-29T02:22:32.521Z,17.29
2022-07-29T02:23:32.509Z,17.28
2022-07-29T02:24:33.493Z,17.25
2022-07-29T02:25:36.981Z,17.22
2022-07-29T02:26:33.501Z,17.22
2022-07-29T02:27:32.466Z,17.20
2022-07-29T02:28:32.445Z,17.23
2022-07-29T02:29:32.440Z,17.20
2022-07-29T02:30:32.424Z,17.18
2022-07-29T02:31:32.465Z,17.15
2022-07-29T02:32:32.426Z,17.15
2022-07-29T02:33:32.395Z,17.13
2022-07-29T02:34:32.384Z,17.11
2022-07-29T02:35:34.560Z,17.10
2022-07-29T02:36:32.355Z,17.08
2022-07-29T02:37:32.355Z,17.07
2022-07-29T02:38:32.361Z,17.06
2022-07-29T02:39:32.336Z,17.06
2022-07-29T02:40:32.316Z,17.04
2022-07-29T02:41:32.311Z,17.03
2022-07-29T02:42:32.297Z,17.04
2022-07-29T02:43:32.307Z,17.06
2022-07-29T02:44:34.706Z,17.06
2022-07-29T02:45:32.268Z,17.07
2022-07-29T02:46:32.296Z,17.07
2022-07-29T02:47:32.249Z,17.08
2022-07-29T02:48:33.267Z,17.04
2022-07-29T02:49:32.225Z,17.04
2022-07-29T02:50:32.208Z,17.07
2022-07-29T02:51:43.771Z,17.06
2022-07-29T02:52:33.198Z,17.06
2022-07-29T02:53:32.180Z,17.00
2022-07-29T02:54:32.191Z,17.00
2022-07-29T02:55:32.158Z,16.99
2022-07-29T02:56:32.142Z,16.99
2022-07-29T02:57:32.136Z,16.95
2022-07-29T02:58:32.118Z,16.95
2022-07-29T02:59:32.158Z,16.96
2022-07-29T03:00:32.120Z,16.96
2022-07-29T03:01:32.152Z,16.96
2022-07-29T03:02:32.079Z,16.93
2022-07-29T03:03:32.069Z,16.95
2022-07-29T03:04:32.086Z,16.95
2022-07-29T03:05:32.070Z,16.95
2022-07-29T03:06:39.829Z,16.93
2022-07-29T03:07:32.029Z,16.93
2022-07-29T03:08:32.014Z,16.93
2022-07-29T03:09:32.000Z,16.90
2022-07-29T03:10:32.011Z,16.92
2022-07-29T03:11:42.373Z,16.90
2022-07-29T03:12:32.977Z,16.86
2022-07-29T03:13:31.959Z,16.86
2022-07-29T03:14:31.951Z,16.85
2022-07-29T03:15:31.938Z,16.83
2022-07-29T03:16:32.001Z,16.81
2022-07-29T03:17:31.911Z,16.80
2022-07-29T03:18:31.926Z,16.83
2022-07-29T03:19:31.891Z,16.83
2022-07-29T03:20:31.882Z,16.83
2022-07-29T03:21:31.870Z,16.83
2022-07-29T03:22:31.859Z,16.80
2022-07-29T03:23:35.322Z,16.78
2022-07-29T03:24:32.837Z,16.78
2022-07-29T03:25:31.822Z,16.75
2022-07-29T03:26:31.832Z,16.75
2022-07-29T03:27:31.806Z,16.77
2022-07-29T03:28:31.815Z,16.77
2022-07-29T03:29:33.503Z,16.75
2022-07-29T03:30:31.773Z,16.77
2022-07-29T03:31:31.815Z,16.80
2022-07-29T03:32:31.743Z,16.78
2022-07-29T03:33:31.742Z,16.78
2022-07-29T03:34:31.726Z,16.75
2022-07-29T03:35:31.725Z,16.77
2022-07-29T03:36:31.709Z,16.77
2022-07-29T03:37:31.713Z,16.77
2022-07-29T03:38:31.682Z,16.75
2022-07-29T03:39:31.674Z,16.75
2022-07-29T03:40:31.656Z,16.75
2022-07-29T03:41:31.655Z,16.74
2022-07-29T03:42:34.321Z,16.74
2022-07-29T03:43:31.636Z,16.74
2022-07-29T03:44:31.618Z,16.74
2022-07-29T03:45:31.605Z,16.71
2022-07-29T03:46:31.647Z,16.70
2022-07-29T03:47:39.288Z,16.70
2022-07-29T03:48:32.597Z,16.70
2022-07-29T03:49:31.567Z,16.68
2022-07-29T03:50:31.630Z,16.68
2022-07-29T03:51:34.001Z,16.70
2022-07-29T03:52:31.532Z,16.70
2022-07-29T03:53:31.541Z,16.73
2022-07-29T03:54:31.512Z,16.73
2022-07-29T03:55:31.503Z,16.71
2022-07-29T03:56:31.485Z,16.71
2022-07-29T03:57:31.478Z,16.75
2022-07-29T03:58:31.478Z,16.77
2022-07-29T03:59:31.459Z,16.78
2022-07-29T04:00:31.440Z,16.78
2022-07-29T04:01:31.452Z,16.78
2022-07-29T04:02:31.479Z,16.77
2022-07-29T04:03:31.517Z,16.81
2022-07-29T04:04:31.400Z,16.80
2022-07-29T04:05:31.390Z,16.83
2022-07-29T04:06:31.371Z,16.81
2022-07-29T04:07:31.390Z,16.85
2022-07-29T04:08:31.350Z,16.86
2022-07-29T04:09:31.373Z,16.89
2022-07-29T04:10:31.931Z,16.89
2022-07-29T04:11:31.320Z,16.92
2022-07-29T04:12:31.310Z,16.93
2022-07-29T04:13:31.301Z,16.96
2022-07-29T04:14:31.289Z,17.00
2022-07-29T04:15:31.949Z,17.06
2022-07-29T04:16:31.286Z,17.07
2022-07-29T04:17:31.258Z,17.08
2022-07-29T04:18:31.241Z,17.08
2022-07-29T04:19:31.258Z,17.11
2022-07-29T04:20:31.218Z,17.13
2022-07-29T04:21:31.222Z,17.14
2022-07-29T04:22:31.204Z,17.15
2022-07-29T04:23:31.194Z,17.18
2022-07-29T04:24:31.201Z,17.20
2022-07-29T04:25:31.194Z,17.22
2022-07-29T04:26:31.178Z,17.22
2022-07-29T04:27:31.158Z,17.23
2022-07-29T04:28:31.136Z,17.23
2022-07-29T04:29:31.201Z,17.25
2022-07-29T04:30:31.135Z,17.28
2022-07-29T04:31:31.269Z,17.29
2022-07-29T04:32:31.125Z,17.29
2022-07-29T04:33:31.136Z,17.33
2022-07-29T04:34:31.066Z,17.35
2022-07-29T04:35:31.054Z,17.36
2022-07-29T04:36:32.066Z,17.38
2022-07-29T04:37:31.043Z,17.40
2022-07-29T04:38:31.023Z,17.41
2022-07-29T04:39:31.034Z,17.41
2022-07-29T04:40:31.006Z,17.43
2022-07-29T04:41:33.282Z,17.41
2022-07-29T04:42:30.986Z,17.41
2022-07-29T04:43:30.998Z,17.41
2022-07-29T04:44:31.956Z,17.40
2022-07-29T04:45:31.974Z,17.38
2022-07-29T04:46:30.983Z,17.40
2022-07-29T04:47:30.925Z,17.41
2022-07-29T04:48:30.917Z,17.43
2022-07-29T04:49:30.958Z,17.46
2022-07-29T04:50:30.897Z,17.46
2022-07-29T04:51:30.890Z,17.50
2022-07-29T04:52:31.012Z,17.53
2022-07-29T04:53:30.868Z,17.55
2022-07-29T04:54:30.848Z,17.59
2022-07-29T04:55:30.858Z,17.63
2022-07-29T04:56:31.583Z,17.63
2022-07-29T04:57:30.821Z,17.69
2022-07-29T04:58:30.807Z,17.73
2022-07-29T04:59:30.826Z,17.76
2022-07-29T05:00:33.281Z,17.78
2022-07-29T05:01:30.856Z,17.81
2022-07-29T05:02:30.824Z,17.84
2022-07-29T05:03:30.761Z,17.85
2022-07-29T05:04:30.750Z,17.88
2022-07-29T05:05:30.770Z,17.91
2022-07-29T05:06:30.723Z,17.89
2022-07-29T05:07:30.711Z,17.92
2022-07-29T05:08:30.721Z,17.89
2022-07-29T05:09:30.692Z,17.92
2022-07-29T05:10:30.672Z,17.97
2022-07-29T05:11:30.750Z,17.99
2022-07-29T05:12:30.671Z,18.02
2022-07-29T05:13:30.641Z,18.03
2022-07-29T05:14:31.622Z,18.06
2022-07-29T05:15:30.659Z,18.04
2022-07-29T05:16:30.604Z,18.04
2022-07-29T05:17:30.633Z,18.04
2022-07-29T05:18:30.601Z,18.04
2022-07-29T05:19:30.583Z,18.04
2022-07-29T05:20:30.606Z,18.04
2022-07-29T05:21:30.578Z,18.03
2022-07-29T05:22:30.553Z,18.00
2022-07-29T05:23:30.564Z,18.00
2022-07-29T05:24:30.515Z,18.02
2022-07-29T05:25:42.014Z,18.03
2022-07-29T05:26:31.514Z,18.02
2022-07-29T05:27:30.497Z,18.00
2022-07-29T05:28:30.482Z,18.02
2022-07-29T05:29:43.361Z,18.03
2022-07-29T05:30:31.580Z,18.03
2022-07-29T05:31:30.498Z,18.07
2022-07-29T05:32:30.435Z,18.13
2022-07-29T05:33:36.074Z,18.17
2022-07-29T05:34:31.452Z,18.10
2022-07-29T05:35:30.415Z,18.06
2022-07-29T05:36:30.396Z,18.09
2022-07-29T05:37:30.378Z,18.15
2022-07-29T05:38:30.369Z,18.10
2022-07-29T05:39:46.613Z,18.00
2022-07-29T05:40:31.339Z,17.91
2022-07-29T05:41:30.337Z,17.87
2022-07-29T05:42:30.317Z,17.87
2022-07-29T05:43:30.310Z,17.88
2022-07-29T05:44:30.356Z,17.88
2022-07-29T05:45:30.356Z,17.84
2022-07-29T05:46:30.369Z,17.82
2022-07-29T05:47:30.281Z,17.82
2022-07-29T05:48:30.297Z,17.82
2022-07-29T05:49:30.341Z,17.87
2022-07-29T05:50:30.265Z,17.91
2022-07-29T05:51:30.273Z,17.91
2022-07-29T05:52:30.250Z,17.95
2022-07-29T05:53:30.250Z,18.00
2022-07-29T05:54:30.210Z,18.03
2022-07-29T05:55:30.192Z,18.06
2022-07-29T05:56:30.178Z,18.10
2022-07-29T05:57:30.219Z,18.07
2022-07-29T05:58:30.182Z,17.97
2022-07-29T05:59:30.696Z,17.99
2022-07-29T06:00:30.211Z,17.94
2022-07-29T06:01:30.234Z,17.97
2022-07-29T06:02:30.113Z,17.95
2022-07-29T06:03:30.188Z,17.92
2022-07-29T06:04:30.126Z,17.89
2022-07-29T06:05:30.100Z,17.82
2022-07-29T06:06:30.061Z,17.82
2022-07-29T06:07:30.078Z,17.84
2022-07-29T06:08:30.049Z,17.81
2022-07-29T06:09:30.100Z,17.85
2022-07-29T06:10:30.068Z,17.87
2022-07-29T06:11:30.014Z,17.87
2022-07-29T06:12:30.026Z,17.88
2022-07-29T06:13:29.985Z,17.94
2022-07-29T06:14:29.974Z,17.97
2022-07-29T06:15:29.965Z,17.97
2022-07-29T06:16:30.558Z,18.02
2022-07-29T06:17:29.944Z,18.09
2022-07-29T06:18:29.954Z,18.17
2022-07-29T06:19:29.932Z,18.22
2022-07-29T06:20:29.942Z,18.29
2022-07-29T06:21:29.895Z,18.33
2022-07-29T06:22:29.906Z,18.36
2022-07-29T06:23:29.913Z,18.43
2022-07-29T06:24:29.865Z,18.55
2022-07-29T06:25:29.855Z,18.57
2022-07-29T06:26:30.410Z,18.59
2022-07-29T06:27:29.835Z,18.64
2022-07-29T06:28:29.827Z,18.62
2022-07-29T06:29:29.833Z,18.64
2022-07-29T06:30:29.895Z,18.67
2022-07-29T06:31:29.787Z,18.72
2022-07-29T06:32:29.776Z,18.67
2022-07-29T06:33:29.769Z,18.54
2022-07-29T06:34:29.768Z,18.44
2022-07-29T06:35:39.167Z,18.40
2022-07-29T06:36:30.757Z,18.43
2022-07-29T06:37:29.743Z,18.50
2022-07-29T06:38:30.718Z,18.54
2022-07-29T06:39:29.721Z,18.58
2022-07-29T06:40:29.688Z,18.59
2022-07-29T06:41:29.678Z,18.64
2022-07-29T06:42:29.688Z,18.67
2022-07-29T06:43:29.688Z,18.61
2022-07-29T06:44:29.653Z,18.59
2022-07-29T06:45:29.645Z,18.59
2022-07-29T06:46:29.703Z,18.64
2022-07-29T06:47:29.612Z,18.64
2022-07-29T06:48:29.621Z,18.68
2022-07-29T06:49:29.784Z,18.82
2022-07-29T06:50:29.649Z,18.98
2022-07-29T06:51:29.583Z,19.08
2022-07-29T06:52:29.580Z,19.10
2022-07-29T06:53:29.548Z,19.05
2022-07-29T06:54:29.531Z,19.11
2022-07-29T06:55:29.524Z,19.02
2022-07-29T06:56:29.517Z,18.99
2022-07-29T06:57:29.531Z,18.98
2022-07-29T06:58:29.516Z,18.90
2022-07-29T06:59:35.051Z,18.79
2022-07-29T07:00:30.472Z,18.73
2022-07-29T07:01:29.573Z,18.79
2022-07-29T07:02:29.527Z,18.91
2022-07-29T07:03:29.452Z,19.10
2022-07-29T07:04:29.432Z,19.29
2022-07-29T07:05:29.421Z,19.46
2022-07-29T07:06:29.432Z,19.60
2022-07-29T07:07:29.396Z,19.75
2022-07-29T07:08:29.484Z,19.87
2022-07-29T07:09:30.463Z,20.00
2022-07-29T07:10:30.384Z,20.10
2022-07-29T07:11:29.422Z,20.23
2022-07-29T07:12:29.337Z,20.33
2022-07-29T07:13:29.332Z,20.42
2022-07-29T07:14:29.335Z,20.49
2022-07-29T07:15:39.421Z,20.33
2022-07-29T07:16:30.371Z,20.27
2022-07-29T07:17:29.296Z,20.18
2022-07-29T07:18:29.268Z,20.15
2022-07-29T07:19:29.265Z,20.20
2022-07-29T07:20:29.287Z,20.23
2022-07-29T07:21:30.317Z,20.31
2022-07-29T07:22:29.238Z,20.35
2022-07-29T07:23:29.226Z,20.38
2022-07-29T07:24:29.217Z,20.49
2022-07-29T07:25:29.225Z,20.59
2022-07-29T07:26:29.195Z,20.71
2022-07-29T07:27:29.178Z,20.84
2022-07-29T07:28:29.161Z,20.79
2022-07-29T07:29:29.149Z,20.86
2022-07-29T07:30:29.152Z,20.89
2022-07-29T07:31:29.226Z,20.98
2022-07-29T07:32:29.117Z,21.02
2022-07-29T07:33:29.138Z,21.13
2022-07-29T07:34:29.555Z,21.16
2022-07-29T07:35:29.098Z,21.23
2022-07-29T07:36:29.078Z,21.32
2022-07-29T07:37:29.072Z,21.38
2022-07-29T07:38:29.057Z,21.42
2022-07-29T07:39:29.099Z,21.46
2022-07-29T07:40:29.039Z,21.50
2022-07-29T07:41:32.360Z,21.48
2022-07-29T07:42:29.032Z,21.34
2022-07-29T07:43:29.009Z,21.11
2022-07-29T07:44:28.998Z,21.05
2022-07-29T07:45:29.077Z,21.04
2022-07-29T07:46:29.764Z,20.95
2022-07-29T07:47:28.995Z,20.87
2022-07-29T07:48:28.959Z,20.93
2022-07-29T07:49:29.007Z,20.89
2022-07-29T07:50:28.924Z,20.90
2022-07-29T07:51:28.964Z,20.99
2022-07-29T07:52:28.907Z,21.08
2022-07-29T07:53:28.893Z,21.17
2022-07-29T07:54:28.894Z,21.26
2022-07-29T07:55:28.875Z,21.34
2022-07-29T07:56:34.808Z,21.39
2022-07-29T07:57:29.896Z,21.44
2022-07-29T07:58:28.857Z,21.36
2022-07-29T07:59:28.856Z,21.14
2022-07-29T08:00:28.852Z,20.98
2022-07-29T08:01:28.895Z,21.05
2022-07-29T08:02:28.865Z,21.14
2022-07-29T08:03:28.798Z,21.24
2022-07-29T08:04:29.482Z,21.30
2022-07-29T08:05:28.788Z,21.36
2022-07-29T08:06:28.794Z,21.27
2022-07-29T08:07:28.766Z,21.32
2022-07-29T08:08:28.728Z,21.27
2022-07-29T08:09:30.350Z,21.20
2022-07-29T08:10:28.726Z,21.14
2022-07-29T08:11:28.748Z,21.17
2022-07-29T08:12:29.727Z,21.11
2022-07-29T08:13:28.687Z,21.02
2022-07-29T08:14:28.708Z,21.13
2022-07-29T08:15:28.675Z,21.24
2022-07-29T08:16:28.730Z,21.29
2022-07-29T08:17:28.649Z,21.30
2022-07-29T08:18:28.667Z,21.38
2022-07-29T08:19:28.651Z,21.48
2022-07-29T08:20:28.632Z,21.57
2022-07-29T08:21:28.611Z,21.59
2022-07-29T08:22:28.580Z,21.64
2022-07-29T08:23:45.447Z,21.54
2022-07-29T08:24:29.592Z,21.57
2022-07-29T08:25:28.572Z,21.60
2022-07-29T08:26:28.539Z,21.50
2022-07-29T08:27:44.428Z,21.48
2022-07-29T08:28:29.524Z,21.36
2022-07-29T08:29:28.521Z,21.44
2022-07-29T08:30:28.504Z,21.38
2022-07-29T08:31:28.523Z,21.42
2022-07-29T08:32:51.249Z,21.46
2022-07-29T08:33:29.455Z,21.44
2022-07-29T08:34:28.509Z,21.27
2022-07-29T08:35:32.068Z,21.24
2022-07-29T08:36:29.442Z,21.23
2022-07-29T08:37:28.430Z,21.32
2022-07-29T08:38:28.406Z,21.38
2022-07-29T08:39:28.396Z,21.44
2022-07-29T08:40:30.599Z,21.56
2022-07-29T08:41:28.384Z,21.67
2022-07-29T08:42:28.367Z,21.51
2022-07-29T08:43:28.372Z,21.59
2022-07-29T08:44:30.848Z,21.72
2022-07-29T08:45:28.347Z,21.90
2022-07-29T08:46:28.344Z,21.94
2022-07-29T08:47:28.308Z,21.98
2022-07-29T08:48:28.301Z,22.07
2022-07-29T08:49:28.364Z,22.09
2022-07-29T08:50:28.276Z,22.04
2022-07-29T08:51:28.286Z,22.04
2022-07-29T08:52:28.368Z,21.97
2022-07-29T08:53:28.288Z,22.04
2022-07-29T08:54:28.230Z,22.07
2022-07-29T08:55:28.221Z,22.10
2022-07-29T08:56:28.239Z,22.20
2022-07-29T08:57:28.230Z,22.25
2022-07-29T08:58:28.371Z,22.20
2022-07-29T08:59:28.178Z,21.98
2022-07-29T09:00:28.170Z,22.12
2022-07-29T09:01:36.289Z,22.23
2022-07-29T09:02:29.272Z,22.37
2022-07-29T09:03:28.295Z,22.44
2022-07-29T09:04:28.183Z,22.52
2022-07-29T09:05:28.181Z,22.46
2022-07-29T09:06:28.209Z,22.31
2022-07-29T09:07:31.822Z,22.27
2022-07-29T09:08:29.166Z,22.17
2022-07-29T09:09:28.077Z,22.17
2022-07-29T09:10:28.054Z,21.99
2022-07-29T09:11:28.064Z,21.90
2022-07-29T09:12:29.272Z,21.74
2022-07-29T09:13:28.022Z,21.69
2022-07-29T09:14:28.014Z,21.53
2022-07-29T09:15:27.995Z,21.32
2022-07-29T09:16:51.863Z,21.34
2022-07-29T09:17:29.003Z,21.34
2022-07-29T09:18:30.424Z,21.30
2022-07-29T09:19:27.961Z,21.24
2022-07-29T09:20:27.946Z,21.20
2022-07-29T09:21:27.939Z,21.17
2022-07-29T09:22:27.988Z,21.17
2022-07-29T09:23:27.983Z,21.11
2022-07-29T09:24:27.905Z,21.08
2022-07-29T09:25:27.888Z,21.04
2022-07-29T09:26:27.887Z,21.04
2022-07-29T09:27:27.867Z,21.04
2022-07-29T09:28:27.887Z,20.93
2022-07-29T09:29:27.869Z,20.86
2022-07-29T09:30:31.310Z,20.79
2022-07-29T09:31:27.854Z,20.79
2022-07-29T09:32:27.966Z,20.77
2022-07-29T09:33:27.828Z,20.86
2022-07-29T09:34:27.811Z,20.79
2022-07-29T09:35:27.809Z,20.76
2022-07-29T09:36:27.781Z,20.76
2022-07-29T09:37:27.760Z,20.80
2022-07-29T09:38:27.751Z,20.81
2022-07-29T09:39:27.740Z,20.81
2022-07-29T09:40:27.761Z,20.84
2022-07-29T09:41:27.720Z,20.95
2022-07-29T09:42:27.711Z,21.06
2022-07-29T09:43:27.705Z,21.19
2022-07-29T09:44:27.691Z,21.29
2022-07-29T09:45:27.672Z,21.39
2022-07-29T09:46:27.756Z,21.50
2022-07-29T09:47:27.653Z,21.60
2022-07-29T09:48:27.652Z,21.67
2022-07-29T09:49:27.737Z,21.78
2022-07-29T09:50:27.623Z,21.88
2022-07-29T09:51:38.594Z,21.98
2022-07-29T09:52:28.604Z,22.02
2022-07-29T09:53:27.597Z,22.13
2022-07-29T09:54:27.583Z,22.23
2022-07-29T09:55:27.591Z,22.31
2022-07-29T09:56:27.557Z,22.28
2022-07-29T09:57:30.962Z,22.25
2022-07-29T09:58:27.596Z,22.29
2022-07-29T09:59:27.635Z,22.31
2022-07-29T10:00:27.538Z,22.10
2022-07-29T10:01:27.652Z,22.09
2022-07-29T10:02:27.539Z,22.01
2022-07-29T10:03:27.571Z,21.97
2022-07-29T10:04:27.538Z,21.92
2022-07-29T10:05:36.755Z,21.83
2022-07-29T10:06:28.456Z,21.81
2022-07-29T10:07:27.501Z,21.82
2022-07-29T10:08:27.513Z,21.94
2022-07-29T10:09:27.472Z,21.98
2022-07-29T10:10:27.527Z,22.10
2022-07-29T10:11:27.389Z,22.14
2022-07-29T10:12:28.399Z,22.31
2022-07-29T10:13:27.369Z,22.53
2022-07-29T10:14:27.360Z,22.77
2022-07-29T10:15:27.472Z,23.02
2022-07-29T10:16:27.419Z,23.32
2022-07-29T10:17:27.324Z,23.61
2022-07-29T10:18:27.341Z,23.98
2022-07-29T10:19:27.309Z,24.27
2022-07-29T10:20:27.301Z,24.57
2022-07-29T10:21:36.187Z,24.82
2022-07-29T10:22:51.880Z,24.97
2022-07-29T10:23:28.285Z,25.25
2022-07-29T10:24:27.576Z,25.52
2022-07-29T10:25:27.242Z,26.11
2022-07-29T10:26:27.233Z,26.80
2022-07-29T10:27:27.221Z,26.86
2022-07-29T10:28:28.225Z,26.08
2022-07-29T10:29:27.194Z,25.16
2022-07-29T10:30:27.184Z,25.09
2022-07-29T10:31:27.240Z,25.01
2022-07-29T10:32:27.165Z,24.90
2022-07-29T10:33:27.176Z,24.98
2022-07-29T10:34:27.145Z,25.19
2022-07-29T10:35:27.136Z,24.92
2022-07-29T10:36:27.145Z,24.75
2022-07-29T10:37:27.186Z,24.56
2022-07-29T10:38:27.098Z,24.50
2022-07-29T10:39:27.109Z,24.17
2022-07-29T10:40:28.104Z,24.05
2022-07-29T10:41:27.084Z,24.04
2022-07-29T10:42:29.720Z,23.90
2022-07-29T10:43:28.068Z,23.60
2022-07-29T10:44:27.037Z,23.38
2022-07-29T10:45:27.050Z,23.20
2022-07-29T10:46:27.093Z,23.09
2022-07-29T10:47:27.001Z,23.08
2022-07-29T10:48:27.001Z,23.15
2022-07-29T10:49:27.043Z,22.87
2022-07-29T10:50:26.978Z,22.83
2022-07-29T10:51:27.563Z,22.74
2022-07-29T10:52:30.305Z,22.65
2022-07-29T10:53:27.078Z,22.53
2022-07-29T10:54:27.936Z,22.53
2022-07-29T10:55:26.913Z,22.43
2022-07-29T10:56:27.940Z,22.41
2022-07-29T10:57:52.528Z,22.12
2022-07-29T10:58:27.883Z,22.01
2022-07-29T10:59:26.872Z,22.06
2022-07-29T11:00:27.864Z,21.95
2022-07-29T11:01:37.431Z,21.66
2022-07-29T11:02:42.669Z,21.67
2022-07-29T11:03:27.852Z,21.72
2022-07-29T11:04:26.823Z,21.66
2022-07-29T11:05:32.019Z,21.69
2022-07-29T11:06:28.192Z,21.67
2022-07-29T11:07:26.871Z,21.66
2022-07-29T11:08:28.285Z,21.60
2022-07-29T11:09:37.794Z,21.54
2022-07-29T11:10:31.369Z,21.56
2022-07-29T11:11:29.766Z,21.56
2022-07-29T11:12:26.819Z,21.32
2022-07-29T11:13:26.746Z,21.24
2022-07-29T11:14:26.709Z,21.19
2022-07-29T11:15:28.666Z,21.08
2022-07-29T11:16:26.698Z,21.09
2022-07-29T11:17:26.717Z,20.89
2022-07-29T11:18:26.694Z,20.89
2022-07-29T11:19:30.587Z,20.89
2022-07-29T11:20:26.658Z,20.79
2022-07-29T11:21:26.630Z,20.66
2022-07-29T11:22:27.625Z,20.65
2022-07-29T11:23:26.636Z,20.72
2022-07-29T11:24:28.689Z,20.68
2022-07-29T11:25:50.479Z,20.66
2022-07-29T11:26:27.580Z,20.50
2022-07-29T11:27:28.590Z,20.47
2022-07-29T11:28:26.570Z,20.42
2022-07-29T11:29:26.573Z,20.38
2022-07-29T11:30:26.541Z,20.47
2022-07-29T11:31:26.521Z,20.42
2022-07-29T11:32:29.311Z,20.35
2022-07-29T11:33:54.113Z,20.41
2022-07-29T11:34:28.126Z,20.46
2022-07-29T11:35:37.330Z,20.34
2022-07-29T11:36:27.816Z,20.35
2022-07-29T11:37:28.081Z,20.42
2022-07-29T11:38:27.966Z,20.39
2022-07-29T11:39:26.453Z,20.35
2022-07-29T11:40:27.459Z,20.28
2022-07-29T11:41:27.398Z,20.23
2022-07-29T11:42:28.844Z,20.12
2022-07-29T11:43:27.406Z,20.15
2022-07-29T11:44:26.400Z,20.18
2022-07-29T11:46:27.384Z,20.25
2022-07-29T11:47:26.345Z,20.27
2022-07-29T11:48:31.705Z,20.23
2022-07-29T11:49:32.035Z,20.30
2022-07-29T11:50:27.344Z,20.35
2022-07-29T11:52:27.297Z,20.25
2022-07-29T11:53:29.172Z,20.16
2022-07-29T11:54:27.788Z,20.08
2022-07-29T11:55:32.286Z,19.98
2022-07-29T11:56:27.286Z,19.88
2022-07-29T11:57:36.643Z,19.90
2022-07-29T11:58:27.258Z,19.97
2022-07-29T11:59:32.924Z,19.95
2022-07-29T12:00:27.238Z,19.93
2022-07-29T12:01:26.198Z,19.93
2022-07-29T12:02:36.532Z,19.94
2022-07-29T12:03:35.567Z,19.97
2022-07-29T12:04:27.168Z,19.94
2022-07-29T12:05:36.201Z,19.95
2022-07-29T12:07:02.231Z,20.35
2022-07-29T12:07:37.455Z,20.00
2022-07-29T12:08:37.338Z,20.03
2022-07-29T12:09:40.363Z,20.03
2022-07-29T12:10:37.349Z,19.95
2022-07-29T12:11:37.329Z,19.95
2022-07-29T12:12:37.300Z,20.00
2022-07-29T12:13:38.080Z,20.03
2022-07-29T12:14:37.278Z,20.05
2022-07-29T12:15:47.109Z,20.08
2022-07-29T12:16:38.381Z,20.10
2022-07-29T12:17:37.240Z,20.06
2022-07-29T12:18:37.231Z,20.09
2022-07-29T12:19:37.222Z,20.16
2022-07-29T12:20:37.214Z,20.20
2022-07-29T12:21:37.223Z,20.12
2022-07-29T12:22:38.229Z,20.15
2022-07-29T12:23:37.181Z,20.15
2022-07-29T12:24:37.164Z,20.09
2022-07-29T12:25:37.166Z,20.15
2022-07-29T12:26:37.144Z,20.23
2022-07-29T12:27:40.297Z,20.27
2022-07-29T12:28:37.143Z,20.33
2022-07-29T12:29:37.116Z,20.38
2022-07-29T12:30:37.095Z,20.41
2022-07-29T12:31:43.589Z,20.47
2022-07-29T12:32:38.097Z,20.53
2022-07-29T12:33:37.096Z,20.58
2022-07-29T12:34:37.054Z,20.62
2022-07-29T12:35:37.056Z,20.65
2022-07-29T12:36:37.038Z,20.69
2022-07-29T12:37:40.956Z,20.72
2022-07-29T12:38:38.036Z,20.76
2022-07-29T12:39:37.006Z,20.77
2022-07-29T12:40:36.998Z,20.81
2022-07-29T12:41:36.979Z,20.84
2022-07-29T12:42:36.967Z,20.84
2022-07-29T12:43:36.968Z,20.84
2022-07-29T12:44:36.967Z,20.89
2022-07-29T12:45:36.948Z,20.90
2022-07-29T12:46:36.976Z,20.95
2022-07-29T12:47:36.921Z,20.99
2022-07-29T12:48:37.010Z,21.01
2022-07-29T12:49:38.123Z,21.02
2022-07-29T12:50:36.889Z,21.08
2022-07-29T12:51:36.879Z,21.11
2022-07-29T12:52:36.871Z,21.13
2022-07-29T12:53:36.859Z,21.14
2022-07-29T12:54:36.860Z,21.16